sensor_id;sensor_type;location;lat;lon;timestamp;P1;durP1;ratioP1;P2;durP2;ratioP2
31910;SDS011;18457;52.432;16.914;2022-10-16T00:02:26;35.30;;;22.00;;
31910;SDS011;18457;52.432;16.914;2022-10-16T00:04:58;36.40;;;22.40;;
31910;SDS011;18457;52.432;16.914;2022-10-16T00:07:30;35.90;;;22.30;;
31910;SDS011;18457;52.432;16.914;2022-10-16T00:10:01;35.70;;;21.40;;
31910;SDS011;18457;52.432;16.914;2022-10-16T00:12:34;34.30;;;22.40;;
31910;SDS011;18457;52.432;16.914;2022-10-16T00:15:06;35.20;;;23.00;;
31910;SDS011;18457;52.432;16.914;2022-10-16T00:17:39;37.30;;;22.90;;
31910;SDS011;18457;52.432;16.914;2022-10-16T00:20:10;33.90;;;22.30;;
31910;SDS011;18457;52.432;16.914;2022-10-16T00:22:42;37.00;;;22.80;;
31910;SDS011;18457;52.432;16.914;2022-10-16T00:25:14;37.00;;;23.60;;
31910;SDS011;18457;52.432;16.914;2022-10-16T00:27:45;32.80;;;21.20;;
31910;SDS011;18457;52.432;16.914;2022-10-16T00:30:17;37.40;;;21.50;;
31910;SDS011;18457;52.432;16.914;2022-10-16T00:32:52;34.20;;;21.50;;
31910;SDS011;18457;52.432;16.914;2022-10-16T00:35:23;30.60;;;20.30;;
31910;SDS011;18457;52.432;16.914;2022-10-16T00:37:56;33.40;;;20.80;;
31910;SDS011;18457;52.432;16.914;2022-10-16T00:40:28;32.40;;;21.40;;
31910;SDS011;18457;52.432;16.914;2022-10-16T00:43:00;33.50;;;19.90;;
31910;SDS011;18457;52.432;16.914;2022-10-16T00:45:32;34.50;;;21.00;;
31910;SDS011;18457;52.432;16.914;2022-10-16T00:48:04;30.10;;;19.20;;
31910;SDS011;18457;52.432;16.914;2022-10-16T00:50:40;32.50;;;20.70;;
31910;SDS011;18457;52.432;16.914;2022-10-16T00:53:13;26.70;;;18.20;;
31910;SDS011;18457;52.432;16.914;2022-10-16T00:55:46;29.50;;;18.90;;
31910;SDS011;18457;52.432;16.914;2022-10-16T00:58:18;28.80;;;19.40;;
31910;SDS011;18457;52.432;16.914;2022-10-16T01:00:50;27.50;;;18.20;;
31910;SDS011;18457;52.432;16.914;2022-10-16T01:03:26;28.80;;;18.90;;
31910;SDS011;18457;52.432;16.914;2022-10-16T01:06:02;27.90;;;19.00;;
31910;SDS011;18457;52.432;16.914;2022-10-16T01:08:48;27.80;;;18.30;;
31910;SDS011;18457;52.432;16.914;2022-10-16T01:11:33;25.90;;;18.10;;
31910;SDS011;18457;52.432;16.914;2022-10-16T01:14:10;27.90;;;18.60;;
31910;SDS011;18457;52.432;16.914;2022-10-16T01:16:48;32.20;;;19.80;;
31910;SDS011;18457;52.432;16.914;2022-10-16T01:19:27;29.10;;;18.40;;
31910;SDS011;18457;52.432;16.914;2022-10-16T01:22:13;26.60;;;17.40;;
31910;SDS011;18457;52.432;16.914;2022-10-16T01:24:47;28.10;;;18.30;;
31910;SDS011;18457;52.432;16.914;2022-10-16T01:27:20;30.90;;;17.10;;
31910;SDS011;18457;52.432;16.914;2022-10-16T01:29:56;33.90;;;19.00;;
31910;SDS011;18457;52.432;16.914;2022-10-16T01:32:33;27.60;;;18.50;;
31910;SDS011;18457;52.432;16.914;2022-10-16T01:35:11;30.30;;;17.70;;
31910;SDS011;18457;52.432;16.914;2022-10-16T01:37:48;24.80;;;17.70;;
31910;SDS011;18457;52.432;16.914;2022-10-16T01:40:24;29.60;;;18.20;;
31910;SDS011;18457;52.432;16.914;2022-10-16T01:42:59;24.10;;;16.30;;
31910;SDS011;18457;52.432;16.914;2022-10-16T01:45:34;25.80;;;16.90;;
31910;SDS011;18457;52.432;16.914;2022-10-16T01:48:06;27.00;;;17.30;;
31910;SDS011;18457;52.432;16.914;2022-10-16T01:50:42;23.90;;;16.30;;
31910;SDS011;18457;52.432;16.914;2022-10-16T01:53:30;23.40;;;16.70;;
31910;SDS011;18457;52.432;16.914;2022-10-16T01:56:03;29.00;;;17.70;;
31910;SDS011;18457;52.432;16.914;2022-10-16T01:58:39;24.40;;;16.30;;
31910;SDS011;18457;52.432;16.914;2022-10-16T02:01:16;24.80;;;15.20;;
31910;SDS011;18457;52.432;16.914;2022-10-16T02:03:52;26.00;;;16.90;;
31910;SDS011;18457;52.432;16.914;2022-10-16T02:06:27;25.30;;;16.70;;
31910;SDS011;18457;52.432;16.914;2022-10-16T02:08:59;23.50;;;17.20;;
31910;SDS011;18457;52.432;16.914;2022-10-16T02:11:31;29.90;;;17.30;;
31910;SDS011;18457;52.432;16.914;2022-10-16T02:14:03;22.70;;;15.70;;
31910;SDS011;18457;52.432;16.914;2022-10-16T02:19:06;24.10;;;16.80;;
31910;SDS011;18457;52.432;16.914;2022-10-16T02:24:19;24.70;;;15.70;;
31910;SDS011;18457;52.432;16.914;2022-10-16T02:27:03;24.70;;;15.90;;
31910;SDS011;18457;52.432;16.914;2022-10-16T02:29:40;25.70;;;16.50;;
31910;SDS011;18457;52.432;16.914;2022-10-16T02:32:19;29.30;;;19.20;;
31910;SDS011;18457;52.432;16.914;2022-10-16T02:34:54;27.80;;;17.50;;
31910;SDS011;18457;52.432;16.914;2022-10-16T02:37:28;28.80;;;17.20;;
31910;SDS011;18457;52.432;16.914;2022-10-16T02:40:00;27.60;;;17.90;;
31910;SDS011;18457;52.432;16.914;2022-10-16T02:42:34;27.60;;;17.70;;
31910;SDS011;18457;52.432;16.914;2022-10-16T02:45:09;25.30;;;16.10;;
31910;SDS011;18457;52.432;16.914;2022-10-16T02:47:41;24.00;;;16.80;;
31910;SDS011;18457;52.432;16.914;2022-10-16T02:50:13;23.80;;;17.30;;
31910;SDS011;18457;52.432;16.914;2022-10-16T02:52:45;28.10;;;17.10;;
31910;SDS011;18457;52.432;16.914;2022-10-16T02:55:16;29.30;;;18.50;;
31910;SDS011;18457;52.432;16.914;2022-10-16T02:57:48;29.20;;;18.40;;
31910;SDS011;18457;52.432;16.914;2022-10-16T03:00:20;32.00;;;17.20;;
31910;SDS011;18457;52.432;16.914;2022-10-16T03:02:51;26.20;;;17.00;;
31910;SDS011;18457;52.432;16.914;2022-10-16T03:05:23;26.20;;;16.30;;
31910;SDS011;18457;52.432;16.914;2022-10-16T03:07:57;26.10;;;17.50;;
31910;SDS011;18457;52.432;16.914;2022-10-16T03:12:59;28.10;;;18.00;;
31910;SDS011;18457;52.432;16.914;2022-10-16T03:15:31;26.20;;;17.60;;
31910;SDS011;18457;52.432;16.914;2022-10-16T03:18:03;25.80;;;17.20;;
31910;SDS011;18457;52.432;16.914;2022-10-16T03:20:35;32.70;;;18.30;;
31910;SDS011;18457;52.432;16.914;2022-10-16T03:23:07;28.80;;;18.60;;
31910;SDS011;18457;52.432;16.914;2022-10-16T03:25:38;33.60;;;19.20;;
31910;SDS011;18457;52.432;16.914;2022-10-16T03:28:10;29.70;;;18.40;;
31910;SDS011;18457;52.432;16.914;2022-10-16T03:30:42;29.70;;;18.00;;
31910;SDS011;18457;52.432;16.914;2022-10-16T03:33:14;33.80;;;20.90;;
31910;SDS011;18457;52.432;16.914;2022-10-16T03:35:51;29.70;;;19.30;;
31910;SDS011;18457;52.432;16.914;2022-10-16T03:38:24;28.70;;;19.20;;
31910;SDS011;18457;52.432;16.914;2022-10-16T03:40:55;29.10;;;18.60;;
31910;SDS011;18457;52.432;16.914;2022-10-16T03:43:27;32.50;;;18.70;;
31910;SDS011;18457;52.432;16.914;2022-10-16T03:45:59;31.20;;;19.80;;
31910;SDS011;18457;52.432;16.914;2022-10-16T03:48:31;29.30;;;19.60;;
31910;SDS011;18457;52.432;16.914;2022-10-16T03:51:02;27.90;;;18.60;;
31910;SDS011;18457;52.432;16.914;2022-10-16T03:53:34;29.00;;;19.00;;
31910;SDS011;18457;52.432;16.914;2022-10-16T03:56:06;30.30;;;20.10;;
31910;SDS011;18457;52.432;16.914;2022-10-16T03:58:38;27.40;;;18.50;;
31910;SDS011;18457;52.432;16.914;2022-10-16T04:01:09;29.10;;;19.10;;
31910;SDS011;18457;52.432;16.914;2022-10-16T04:03:41;27.90;;;19.10;;
31910;SDS011;18457;52.432;16.914;2022-10-16T04:06:13;27.40;;;18.20;;
31910;SDS011;18457;52.432;16.914;2022-10-16T04:08:44;31.00;;;20.80;;
31910;SDS011;18457;52.432;16.914;2022-10-16T04:11:16;28.80;;;18.30;;
31910;SDS011;18457;52.432;16.914;2022-10-16T04:13:48;28.90;;;19.00;;
31910;SDS011;18457;52.432;16.914;2022-10-16T04:16:19;30.40;;;18.60;;
31910;SDS011;18457;52.432;16.914;2022-10-16T04:18:51;30.90;;;18.10;;
31910;SDS011;18457;52.432;16.914;2022-10-16T04:21:23;28.90;;;20.00;;
31910;SDS011;18457;52.432;16.914;2022-10-16T04:23:54;29.50;;;18.60;;
31910;SDS011;18457;52.432;16.914;2022-10-16T04:26:26;28.70;;;18.60;;
31910;SDS011;18457;52.432;16.914;2022-10-16T04:28:58;30.10;;;19.90;;
31910;SDS011;18457;52.432;16.914;2022-10-16T04:31:29;33.70;;;19.80;;
31910;SDS011;18457;52.432;16.914;2022-10-16T04:34:01;31.10;;;19.80;;
31910;SDS011;18457;52.432;16.914;2022-10-16T04:36:33;27.90;;;19.20;;
31910;SDS011;18457;52.432;16.914;2022-10-16T04:39:05;26.60;;;18.40;;
31910;SDS011;18457;52.432;16.914;2022-10-16T04:41:38;32.00;;;20.30;;
31910;SDS011;18457;52.432;16.914;2022-10-16T04:44:10;32.40;;;18.90;;
31910;SDS011;18457;52.432;16.914;2022-10-16T04:46:43;34.10;;;20.50;;
31910;SDS011;18457;52.432;16.914;2022-10-16T04:49:14;30.50;;;18.60;;
31910;SDS011;18457;52.432;16.914;2022-10-16T04:51:46;34.90;;;20.20;;
31910;SDS011;18457;52.432;16.914;2022-10-16T04:54:18;29.60;;;20.10;;
31910;SDS011;18457;52.432;16.914;2022-10-16T04:56:50;29.30;;;19.80;;
31910;SDS011;18457;52.432;16.914;2022-10-16T04:59:21;28.70;;;18.40;;
31910;SDS011;18457;52.432;16.914;2022-10-16T05:01:53;28.70;;;19.20;;
31910;SDS011;18457;52.432;16.914;2022-10-16T05:04:25;28.60;;;18.60;;
31910;SDS011;18457;52.432;16.914;2022-10-16T05:06:56;31.10;;;19.90;;
31910;SDS011;18457;52.432;16.914;2022-10-16T05:09:28;33.50;;;21.70;;
31910;SDS011;18457;52.432;16.914;2022-10-16T05:11:59;33.10;;;20.20;;
31910;SDS011;18457;52.432;16.914;2022-10-16T05:14:32;30.30;;;20.00;;
31910;SDS011;18457;52.432;16.914;2022-10-16T05:17:03;31.30;;;20.50;;
31910;SDS011;18457;52.432;16.914;2022-10-16T05:19:35;29.80;;;19.60;;
31910;SDS011;18457;52.432;16.914;2022-10-16T05:22:07;30.00;;;19.50;;
31910;SDS011;18457;52.432;16.914;2022-10-16T05:24:38;34.50;;;19.70;;
31910;SDS011;18457;52.432;16.914;2022-10-16T05:27:10;32.80;;;18.10;;
31910;SDS011;18457;52.432;16.914;2022-10-16T05:29:47;33.70;;;20.40;;
31910;SDS011;18457;52.432;16.914;2022-10-16T05:32:19;30.10;;;20.00;;
31910;SDS011;18457;52.432;16.914;2022-10-16T05:34:51;31.10;;;20.80;;
31910;SDS011;18457;52.432;16.914;2022-10-16T05:37:23;32.70;;;19.80;;
31910;SDS011;18457;52.432;16.914;2022-10-16T05:39:55;28.50;;;19.60;;
31910;SDS011;18457;52.432;16.914;2022-10-16T05:42:26;30.80;;;19.00;;
31910;SDS011;18457;52.432;16.914;2022-10-16T05:44:58;29.80;;;18.90;;
31910;SDS011;18457;52.432;16.914;2022-10-16T05:47:30;31.20;;;19.50;;
31910;SDS011;18457;52.432;16.914;2022-10-16T05:50:02;43.20;;;22.60;;
31910;SDS011;18457;52.432;16.914;2022-10-16T05:55:05;34.60;;;20.00;;
31910;SDS011;18457;52.432;16.914;2022-10-16T05:57:37;30.10;;;19.70;;
31910;SDS011;18457;52.432;16.914;2022-10-16T06:00:10;34.50;;;19.40;;
31910;SDS011;18457;52.432;16.914;2022-10-16T06:02:42;35.30;;;19.60;;
31910;SDS011;18457;52.432;16.914;2022-10-16T06:05:13;32.20;;;20.50;;
31910;SDS011;18457;52.432;16.914;2022-10-16T06:07:45;21.60;;;14.00;;
31910;SDS011;18457;52.432;16.914;2022-10-16T06:10:17;32.20;;;20.40;;
31910;SDS011;18457;52.432;16.914;2022-10-16T06:12:49;34.30;;;20.30;;
31910;SDS011;18457;52.432;16.914;2022-10-16T06:15:20;33.80;;;21.40;;
31910;SDS011;18457;52.432;16.914;2022-10-16T06:17:52;33.50;;;20.40;;
31910;SDS011;18457;52.432;16.914;2022-10-16T06:22:56;33.30;;;20.40;;
31910;SDS011;18457;52.432;16.914;2022-10-16T06:25:28;34.80;;;20.70;;
31910;SDS011;18457;52.432;16.914;2022-10-16T06:28:00;34.10;;;19.30;;
31910;SDS011;18457;52.432;16.914;2022-10-16T06:30:31;31.70;;;20.10;;
31910;SDS011;18457;52.432;16.914;2022-10-16T06:33:03;33.00;;;21.20;;
31910;SDS011;18457;52.432;16.914;2022-10-16T06:35:35;29.00;;;20.20;;
31910;SDS011;18457;52.432;16.914;2022-10-16T06:38:06;34.80;;;20.10;;
31910;SDS011;18457;52.432;16.914;2022-10-16T06:40:38;36.10;;;20.60;;
31910;SDS011;18457;52.432;16.914;2022-10-16T06:43:10;30.60;;;19.80;;
31910;SDS011;18457;52.432;16.914;2022-10-16T06:45:41;32.80;;;21.40;;
31910;SDS011;18457;52.432;16.914;2022-10-16T06:48:13;33.70;;;21.40;;
31910;SDS011;18457;52.432;16.914;2022-10-16T06:50:45;30.10;;;20.00;;
31910;SDS011;18457;52.432;16.914;2022-10-16T06:53:27;30.60;;;19.40;;
31910;SDS011;18457;52.432;16.914;2022-10-16T06:56:12;30.70;;;20.30;;
31910;SDS011;18457;52.432;16.914;2022-10-16T06:58:45;31.80;;;20.80;;
31910;SDS011;18457;52.432;16.914;2022-10-16T07:03:49;32.50;;;20.10;;
31910;SDS011;18457;52.432;16.914;2022-10-16T07:06:22;29.00;;;20.50;;
31910;SDS011;18457;52.432;16.914;2022-10-16T07:08:55;33.70;;;21.30;;
31910;SDS011;18457;52.432;16.914;2022-10-16T07:11:27;31.30;;;21.80;;
31910;SDS011;18457;52.432;16.914;2022-10-16T07:13:59;31.80;;;21.30;;
31910;SDS011;18457;52.432;16.914;2022-10-16T07:16:32;31.40;;;22.20;;
31910;SDS011;18457;52.432;16.914;2022-10-16T07:19:04;31.60;;;21.80;;
31910;SDS011;18457;52.432;16.914;2022-10-16T07:21:36;30.20;;;21.90;;
31910;SDS011;18457;52.432;16.914;2022-10-16T07:24:11;28.70;;;19.90;;
31910;SDS011;18457;52.432;16.914;2022-10-16T07:26:44;29.40;;;20.40;;
31910;SDS011;18457;52.432;16.914;2022-10-16T07:29:17;28.30;;;19.70;;
31910;SDS011;18457;52.432;16.914;2022-10-16T07:31:50;31.80;;;21.00;;
31910;SDS011;18457;52.432;16.914;2022-10-16T07:34:22;36.10;;;23.30;;
31910;SDS011;18457;52.432;16.914;2022-10-16T07:36:53;34.90;;;22.70;;
31910;SDS011;18457;52.432;16.914;2022-10-16T07:39:25;31.80;;;21.20;;
31910;SDS011;18457;52.432;16.914;2022-10-16T07:41:56;27.60;;;20.70;;
31910;SDS011;18457;52.432;16.914;2022-10-16T07:44:28;36.70;;;22.20;;
31910;SDS011;18457;52.432;16.914;2022-10-16T07:47:00;30.50;;;20.90;;
31910;SDS011;18457;52.432;16.914;2022-10-16T07:49:31;33.60;;;21.80;;
31910;SDS011;18457;52.432;16.914;2022-10-16T07:52:03;27.80;;;19.50;;
31910;SDS011;18457;52.432;16.914;2022-10-16T07:54:35;29.60;;;20.50;;
31910;SDS011;18457;52.432;16.914;2022-10-16T07:57:06;28.50;;;19.60;;
31910;SDS011;18457;52.432;16.914;2022-10-16T07:59:38;27.60;;;19.80;;
31910;SDS011;18457;52.432;16.914;2022-10-16T08:02:10;30.60;;;22.00;;
31910;SDS011;18457;52.432;16.914;2022-10-16T08:04:42;28.30;;;19.90;;
31910;SDS011;18457;52.432;16.914;2022-10-16T08:07:16;28.00;;;19.70;;
31910;SDS011;18457;52.432;16.914;2022-10-16T08:09:50;30.10;;;20.00;;
31910;SDS011;18457;52.432;16.914;2022-10-16T08:12:21;28.90;;;19.70;;
31910;SDS011;18457;52.432;16.914;2022-10-16T08:14:53;21.80;;;15.80;;
31910;SDS011;18457;52.432;16.914;2022-10-16T08:17:25;31.50;;;20.30;;
31910;SDS011;18457;52.432;16.914;2022-10-16T08:19:57;29.70;;;19.70;;
31910;SDS011;18457;52.432;16.914;2022-10-16T08:22:29;26.80;;;19.40;;
31910;SDS011;18457;52.432;16.914;2022-10-16T08:25:00;28.50;;;19.60;;
31910;SDS011;18457;52.432;16.914;2022-10-16T08:27:32;28.40;;;19.50;;
31910;SDS011;18457;52.432;16.914;2022-10-16T08:30:05;30.80;;;19.80;;
31910;SDS011;18457;52.432;16.914;2022-10-16T08:32:38;24.10;;;18.50;;
31910;SDS011;18457;52.432;16.914;2022-10-16T08:35:11;31.10;;;20.10;;
31910;SDS011;18457;52.432;16.914;2022-10-16T08:37:44;24.50;;;18.60;;
31910;SDS011;18457;52.432;16.914;2022-10-16T08:40:17;29.20;;;19.50;;
31910;SDS011;18457;52.432;16.914;2022-10-16T08:43:03;28.00;;;18.60;;
31910;SDS011;18457;52.432;16.914;2022-10-16T08:45:51;22.60;;;17.10;;
31910;SDS011;18457;52.432;16.914;2022-10-16T08:48:35;24.70;;;19.40;;
31910;SDS011;18457;52.432;16.914;2022-10-16T08:51:18;23.20;;;17.60;;
31910;SDS011;18457;52.432;16.914;2022-10-16T08:53:53;23.80;;;16.90;;
31910;SDS011;18457;52.432;16.914;2022-10-16T08:56:28;20.20;;;15.40;;
31910;SDS011;18457;52.432;16.914;2022-10-16T08:59:00;20.30;;;14.80;;
31910;SDS011;18457;52.432;16.914;2022-10-16T09:01:36;21.20;;;15.60;;
31910;SDS011;18457;52.432;16.914;2022-10-16T09:07:26;19.60;;;14.10;;
31910;SDS011;18457;52.432;16.914;2022-10-16T09:10:11;19.10;;;13.50;;
31910;SDS011;18457;52.432;16.914;2022-10-16T09:15:27;17.50;;;12.30;;
31910;SDS011;18457;52.432;16.914;2022-10-16T09:18:06;16.50;;;13.10;;
31910;SDS011;18457;52.432;16.914;2022-10-16T09:20:48;17.50;;;13.80;;
31910;SDS011;18457;52.432;16.914;2022-10-16T09:23:25;19.60;;;12.90;;
31910;SDS011;18457;52.432;16.914;2022-10-16T09:25:58;15.40;;;12.60;;
31910;SDS011;18457;52.432;16.914;2022-10-16T09:28:31;18.00;;;13.70;;
31910;SDS011;18457;52.432;16.914;2022-10-16T09:31:03;17.00;;;12.50;;
31910;SDS011;18457;52.432;16.914;2022-10-16T09:33:36;17.80;;;13.40;;
31910;SDS011;18457;52.432;16.914;2022-10-16T09:36:11;18.70;;;12.90;;
31910;SDS011;18457;52.432;16.914;2022-10-16T09:38:44;17.60;;;13.30;;
31910;SDS011;18457;52.432;16.914;2022-10-16T09:41:18;17.60;;;12.90;;
31910;SDS011;18457;52.432;16.914;2022-10-16T09:43:54;15.10;;;13.10;;
31910;SDS011;18457;52.432;16.914;2022-10-16T09:46:30;16.00;;;12.70;;
31910;SDS011;18457;52.432;16.914;2022-10-16T09:49:16;15.10;;;12.40;;
31910;SDS011;18457;52.432;16.914;2022-10-16T09:52:02;16.60;;;11.20;;
31910;SDS011;18457;52.432;16.914;2022-10-16T09:54:35;16.50;;;12.40;;
31910;SDS011;18457;52.432;16.914;2022-10-16T09:57:16;18.60;;;12.20;;
31910;SDS011;18457;52.432;16.914;2022-10-16T09:59:50;15.20;;;11.30;;
31910;SDS011;18457;52.432;16.914;2022-10-16T10:02:26;14.40;;;11.20;;
31910;SDS011;18457;52.432;16.914;2022-10-16T10:05:00;12.70;;;10.80;;
31910;SDS011;18457;52.432;16.914;2022-10-16T10:07:35;14.20;;;11.70;;
31910;SDS011;18457;52.432;16.914;2022-10-16T10:10:20;13.70;;;10.60;;
31910;SDS011;18457;52.432;16.914;2022-10-16T10:12:55;13.90;;;11.50;;
31910;SDS011;18457;52.432;16.914;2022-10-16T10:15:29;11.20;;;9.90;;
31910;SDS011;18457;52.432;16.914;2022-10-16T10:18:16;14.30;;;9.10;;
31910;SDS011;18457;52.432;16.914;2022-10-16T10:20:58;11.40;;;9.20;;
31910;SDS011;18457;52.432;16.914;2022-10-16T10:23:32;12.10;;;9.20;;
31910;SDS011;18457;52.432;16.914;2022-10-16T10:26:05;10.60;;;8.90;;
31910;SDS011;18457;52.432;16.914;2022-10-16T10:28:51;12.00;;;10.00;;
31910;SDS011;18457;52.432;16.914;2022-10-16T10:31:31;11.70;;;9.70;;
31910;SDS011;18457;52.432;16.914;2022-10-16T10:34:09;13.50;;;10.50;;
31910;SDS011;18457;52.432;16.914;2022-10-16T10:36:59;11.10;;;9.50;;
31910;SDS011;18457;52.432;16.914;2022-10-16T10:39:38;11.50;;;10.20;;
31910;SDS011;18457;52.432;16.914;2022-10-16T10:42:20;13.10;;;11.10;;
31910;SDS011;18457;52.432;16.914;2022-10-16T10:45:17;15.30;;;12.00;;
31910;SDS011;18457;52.432;16.914;2022-10-16T10:47:55;18.00;;;11.10;;
31910;SDS011;18457;52.432;16.914;2022-10-16T10:50:43;13.70;;;12.30;;
31910;SDS011;18457;52.432;16.914;2022-10-16T10:53:24;13.40;;;10.40;;
31910;SDS011;18457;52.432;16.914;2022-10-16T10:56:06;15.20;;;11.80;;
31910;SDS011;18457;52.432;16.914;2022-10-16T10:58:58;13.90;;;10.90;;
31910;SDS011;18457;52.432;16.914;2022-10-16T11:01:40;13.50;;;11.40;;
31910;SDS011;18457;52.432;16.914;2022-10-16T11:04:32;13.00;;;9.80;;
31910;SDS011;18457;52.432;16.914;2022-10-16T11:07:14;11.80;;;10.30;;
31910;SDS011;18457;52.432;16.914;2022-10-16T11:09:51;14.90;;;10.60;;
31910;SDS011;18457;52.432;16.914;2022-10-16T11:12:29;16.40;;;12.60;;
31910;SDS011;18457;52.432;16.914;2022-10-16T11:15:07;12.00;;;10.60;;
31910;SDS011;18457;52.432;16.914;2022-10-16T11:17:47;18.90;;;11.30;;
31910;SDS011;18457;52.432;16.914;2022-10-16T11:20:25;12.40;;;10.90;;
31910;SDS011;18457;52.432;16.914;2022-10-16T11:23:01;13.20;;;9.90;;
31910;SDS011;18457;52.432;16.914;2022-10-16T11:25:40;11.70;;;9.90;;
31910;SDS011;18457;52.432;16.914;2022-10-16T11:28:14;11.00;;;9.50;;
31910;SDS011;18457;52.432;16.914;2022-10-16T11:30:55;9.50;;;8.60;;
31910;SDS011;18457;52.432;16.914;2022-10-16T11:33:32;13.30;;;11.50;;
31910;SDS011;18457;52.432;16.914;2022-10-16T11:36:11;11.40;;;10.20;;
31910;SDS011;18457;52.432;16.914;2022-10-16T11:38:48;12.10;;;9.20;;
31910;SDS011;18457;52.432;16.914;2022-10-16T11:41:28;13.60;;;9.00;;
31910;SDS011;18457;52.432;16.914;2022-10-16T11:44:09;8.80;;;7.90;;
31910;SDS011;18457;52.432;16.914;2022-10-16T11:46:50;9.00;;;7.30;;
31910;SDS011;18457;52.432;16.914;2022-10-16T11:49:51;7.10;;;6.40;;
31910;SDS011;18457;52.432;16.914;2022-10-16T11:52:30;7.00;;;6.30;;
31910;SDS011;18457;52.432;16.914;2022-10-16T11:55:13;9.50;;;6.20;;
31910;SDS011;18457;52.432;16.914;2022-10-16T11:57:48;6.20;;;5.70;;
31910;SDS011;18457;52.432;16.914;2022-10-16T12:00:24;7.40;;;6.60;;
31910;SDS011;18457;52.432;16.914;2022-10-16T12:03:00;8.70;;;6.40;;
31910;SDS011;18457;52.432;16.914;2022-10-16T12:05:46;7.40;;;6.50;;
31910;SDS011;18457;52.432;16.914;2022-10-16T12:08:28;7.30;;;6.30;;
31910;SDS011;18457;52.432;16.914;2022-10-16T12:11:08;12.10;;;6.50;;
31910;SDS011;18457;52.432;16.914;2022-10-16T12:14:03;7.50;;;6.60;;
31910;SDS011;18457;52.432;16.914;2022-10-16T12:16:38;9.20;;;6.60;;
31910;SDS011;18457;52.432;16.914;2022-10-16T12:19:21;10.40;;;7.70;;
31910;SDS011;18457;52.432;16.914;2022-10-16T12:21:55;7.20;;;6.00;;
31910;SDS011;18457;52.432;16.914;2022-10-16T12:24:35;7.20;;;6.10;;
31910;SDS011;18457;52.432;16.914;2022-10-16T12:27:20;7.10;;;5.80;;
31910;SDS011;18457;52.432;16.914;2022-10-16T12:29:59;10.20;;;5.90;;
31910;SDS011;18457;52.432;16.914;2022-10-16T12:32:35;10.00;;;5.90;;
31910;SDS011;18457;52.432;16.914;2022-10-16T12:35:19;6.50;;;5.20;;
31910;SDS011;18457;52.432;16.914;2022-10-16T12:37:53;9.80;;;6.20;;
31910;SDS011;18457;52.432;16.914;2022-10-16T12:40:35;8.20;;;5.90;;
31910;SDS011;18457;52.432;16.914;2022-10-16T12:43:13;11.80;;;6.00;;
31910;SDS011;18457;52.432;16.914;2022-10-16T12:46:02;10.30;;;6.10;;
31910;SDS011;18457;52.432;16.914;2022-10-16T12:48:51;7.30;;;5.50;;
31910;SDS011;18457;52.432;16.914;2022-10-16T12:51:36;5.80;;;4.50;;
31910;SDS011;18457;52.432;16.914;2022-10-16T12:56:46;7.10;;;5.10;;
31910;SDS011;18457;52.432;16.914;2022-10-16T12:59:31;5.50;;;4.80;;
31910;SDS011;18457;52.432;16.914;2022-10-16T13:02:22;5.90;;;5.00;;
31910;SDS011;18457;52.432;16.914;2022-10-16T13:05:16;5.70;;;5.20;;
31910;SDS011;18457;52.432;16.914;2022-10-16T13:10:34;6.60;;;5.30;;
31910;SDS011;18457;52.432;16.914;2022-10-16T13:13:16;6.00;;;5.40;;
31910;SDS011;18457;52.432;16.914;2022-10-16T13:16:07;7.60;;;5.30;;
31910;SDS011;18457;52.432;16.914;2022-10-16T13:18:47;9.20;;;5.60;;
31910;SDS011;18457;52.432;16.914;2022-10-16T13:21:33;7.00;;;4.60;;
31910;SDS011;18457;52.432;16.914;2022-10-16T13:24:15;7.90;;;5.40;;
31910;SDS011;18457;52.432;16.914;2022-10-16T13:26:57;5.30;;;4.80;;
31910;SDS011;18457;52.432;16.914;2022-10-16T13:29:36;7.30;;;5.70;;
31910;SDS011;18457;52.432;16.914;2022-10-16T13:32:10;11.20;;;5.90;;
31910;SDS011;18457;52.432;16.914;2022-10-16T13:34:46;6.90;;;5.70;;
31910;SDS011;18457;52.432;16.914;2022-10-16T13:37:19;6.00;;;5.40;;
31910;SDS011;18457;52.432;16.914;2022-10-16T13:40:01;7.30;;;5.30;;
31910;SDS011;18457;52.432;16.914;2022-10-16T13:42:37;6.30;;;5.60;;
31910;SDS011;18457;52.432;16.914;2022-10-16T13:45:18;7.90;;;5.50;;
31910;SDS011;18457;52.432;16.914;2022-10-16T13:48:00;7.90;;;6.20;;
31910;SDS011;18457;52.432;16.914;2022-10-16T13:50:33;6.60;;;5.50;;
31910;SDS011;18457;52.432;16.914;2022-10-16T13:53:05;6.70;;;5.30;;
31910;SDS011;18457;52.432;16.914;2022-10-16T13:55:43;6.40;;;5.50;;
31910;SDS011;18457;52.432;16.914;2022-10-16T13:58:14;55.70;;;25.30;;
31910;SDS011;18457;52.432;16.914;2022-10-16T14:00:54;54.10;;;20.30;;
31910;SDS011;18457;52.432;16.914;2022-10-16T14:03:28;38.00;;;19.90;;
31910;SDS011;18457;52.432;16.914;2022-10-16T14:06:03;47.10;;;17.40;;
31910;SDS011;18457;52.432;16.914;2022-10-16T14:08:43;8.00;;;6.80;;
31910;SDS011;18457;52.432;16.914;2022-10-16T14:11:21;9.10;;;6.90;;
31910;SDS011;18457;52.432;16.914;2022-10-16T14:13:55;11.30;;;5.80;;
31910;SDS011;18457;52.432;16.914;2022-10-16T14:16:27;10.20;;;5.80;;
31910;SDS011;18457;52.432;16.914;2022-10-16T14:19:02;6.50;;;5.80;;
31910;SDS011;18457;52.432;16.914;2022-10-16T14:21:35;16.00;;;6.10;;
31910;SDS011;18457;52.432;16.914;2022-10-16T14:24:13;15.40;;;8.30;;
31910;SDS011;18457;52.432;16.914;2022-10-16T14:26:55;11.80;;;8.40;;
31910;SDS011;18457;52.432;16.914;2022-10-16T14:29:28;8.80;;;6.20;;
31910;SDS011;18457;52.432;16.914;2022-10-16T14:32:01;8.20;;;5.80;;
31910;SDS011;18457;52.432;16.914;2022-10-16T14:34:35;8.40;;;5.60;;
31910;SDS011;18457;52.432;16.914;2022-10-16T14:37:10;6.40;;;5.10;;
31910;SDS011;18457;52.432;16.914;2022-10-16T14:40:03;9.40;;;7.20;;
31910;SDS011;18457;52.432;16.914;2022-10-16T14:42:45;7.90;;;6.10;;
31910;SDS011;18457;52.432;16.914;2022-10-16T14:45:19;10.70;;;6.50;;
31910;SDS011;18457;52.432;16.914;2022-10-16T14:47:55;8.10;;;5.40;;
31910;SDS011;18457;52.432;16.914;2022-10-16T14:50:29;5.80;;;5.30;;
31910;SDS011;18457;52.432;16.914;2022-10-16T14:53:00;6.30;;;5.50;;
31910;SDS011;18457;52.432;16.914;2022-10-16T14:55:38;6.40;;;5.40;;
31910;SDS011;18457;52.432;16.914;2022-10-16T14:58:11;6.30;;;5.20;;
31910;SDS011;18457;52.432;16.914;2022-10-16T15:00:47;5.60;;;5.00;;
31910;SDS011;18457;52.432;16.914;2022-10-16T15:03:19;9.80;;;4.80;;
31910;SDS011;18457;52.432;16.914;2022-10-16T15:05:52;5.80;;;4.50;;
31910;SDS011;18457;52.432;16.914;2022-10-16T15:08:24;6.80;;;5.60;;
31910;SDS011;18457;52.432;16.914;2022-10-16T15:10:55;6.60;;;4.60;;
31910;SDS011;18457;52.432;16.914;2022-10-16T15:13:27;5.50;;;4.10;;
31910;SDS011;18457;52.432;16.914;2022-10-16T15:15:59;6.70;;;4.10;;
31910;SDS011;18457;52.432;16.914;2022-10-16T15:18:32;6.10;;;4.40;;
31910;SDS011;18457;52.432;16.914;2022-10-16T15:21:05;8.40;;;5.10;;
31910;SDS011;18457;52.432;16.914;2022-10-16T15:26:08;7.60;;;4.60;;
31910;SDS011;18457;52.432;16.914;2022-10-16T15:31:11;7.10;;;5.60;;
31910;SDS011;18457;52.432;16.914;2022-10-16T15:33:43;9.70;;;5.20;;
31910;SDS011;18457;52.432;16.914;2022-10-16T15:36:28;6.70;;;5.10;;